Time;durP1;ratioP1;P1;durP2;ratioP2;P2;SDS_P1;SDS_P2;PMS_P1;PMS_P2;Temp;Humidity;BMP_temperature;BMP_pressure;BME280_temperature;BME280_humidity;BME280_pressure;Samples;Min_cycle;Max_cycle;Signal;HPM_P1;HPM_P2
2022/07/12 00:01:07;;;;;;;2.30;2.10;;;;;;;18.30;nan;-24326.69;4979064;28;20180;-57
2022/07/12 00:03:33;;;;;;;2.70;2.22;;;;;;;17.99;nan;-24318.19;4978144;28;20181;-56
2022/07/12 00:05:59;;;;;;;3.10;2.25;;;;;;;;;;4977600;28;20192;-56
2022/07/12 00:08:24;;;;;;;2.72;2.08;;;;;;;18.28;nan;-24326.00;4979156;28;20185;-57
2022/07/12 00:10:50;;;;;;;2.95;2.00;;;;;;;17.95;nan;-24316.94;4977151;28;20268;-57
2022/07/12 00:13:17;;;;;;;2.35;2.08;;;;;;;18.01;nan;-24318.75;4979058;28;20208;-55
2022/07/12 00:15:43;;;;;;;2.42;2.00;;;;;;;18.31;nan;-24326.97;5008325;28;20255;-55
2022/07/12 00:18:10;;;;;;;2.85;2.20;;;;;;;16.00;nan;-24263.03;4979414;28;20726;-56
2022/07/12 00:20:36;;;;;;;2.53;2.08;;;;;;;18.08;nan;-24320.56;4976795;28;20288;-56
2022/07/12 00:23:02;;;;;;;2.40;2.20;;;;;;;18.04;nan;-24319.44;4977841;28;20653;-56
2022/07/12 00:25:28;;;;;;;2.30;2.00;;;;;;;17.87;nan;-24314.84;4978427;28;20187;-55
2022/07/12 00:27:53;;;;;;;2.22;2.03;;;;;;;17.89;nan;-24315.28;4977025;28;20189;-56
2022/07/12 00:30:19;;;;;;;2.70;2.20;;;;;;;17.98;nan;-24317.78;4979607;28;20184;-55
2022/07/12 00:32:47;;;;;;;2.60;2.20;;;;;;;17.77;nan;-24312.06;4978132;28;20189;-56
2022/07/12 00:35:13;;;;;;;2.70;2.38;;;;;;;17.54;nan;-24305.78;4980498;28;20244;-57
2022/07/12 00:37:39;;;;;;;3.88;2.30;;;;;;;17.80;nan;-24312.75;4980839;28;20233;-56
2022/07/12 00:40:08;;;;;;;2.55;2.22;;;;;;;17.85;nan;-24314.28;4981462;28;20232;-57
2022/07/12 00:42:35;;;;;;;2.20;2.00;;;;;;;17.61;nan;-24307.75;4980796;28;20181;-56
2022/07/12 00:45:02;;;;;;;2.63;2.40;;;;;;;17.52;nan;-24305.22;4980448;28;20199;-56
2022/07/12 00:47:33;;;;;;;2.85;2.15;;;;;;;17.79;nan;-24312.47;4982477;28;20180;-56
2022/07/12 00:49:59;;;;;;;2.42;2.03;;;;;;;17.30;nan;-24299.09;4978667;28;20709;-56
2022/07/12 00:52:25;;;;;;;2.63;2.42;;;;;;;17.51;nan;-24304.94;4982179;28;20187;-56
2022/07/12 00:54:50;;;;;;;2.20;2.00;;;;;;;17.73;nan;-24310.81;4980028;28;20185;-55
2022/07/12 00:57:16;;;;;;;2.65;2.15;;;;;;;17.69;nan;-24309.84;4983202;28;20325;-56
2022/07/12 00:59:41;;;;;;;3.00;2.25;;;;;;;17.49;nan;-24304.38;4979988;28;20212;-55
2022/07/12 01:02:07;;;;;;;2.58;2.28;;;;;;;17.78;nan;-24312.19;4980629;28;20190;-56
2022/07/12 01:04:34;;;;;;;4.13;1.92;;;;;;;17.46;nan;-24303.56;4981723;28;20181;-55
2022/07/12 01:06:59;;;;;;;2.28;2.08;;;;;;;17.31;nan;-24299.22;4980630;28;20181;-58
2022/07/12 01:09:25;;;;;;;3.20;2.25;;;;;;;17.31;nan;-24299.38;4983270;28;20177;-56
2022/07/12 01:11:50;;;;;;;2.30;2.10;;;;;;;;;;4980068;28;20196;-57
2022/07/12 01:14:16;;;;;;;2.42;2.10;;;;;;;17.16;nan;-24295.16;4981090;28;20185;-54
2022/07/12 01:16:42;;;;;;;2.80;2.15;;;;;;;17.26;nan;-24297.97;4979440;28;20220;-56
2022/07/12 01:19:09;;;;;;;2.22;1.92;;;;;;;17.15;nan;-24294.91;4978624;28;20221;-56
2022/07/12 01:21:37;;;;;;;2.95;2.55;;;;;;;17.19;nan;-24296.00;4978636;28;20184;-56
2022/07/12 01:24:06;;;;;;;2.80;2.47;;;;;;;17.22;nan;-24297.00;4979358;28;20204;-56
2022/07/12 01:26:32;;;;;;;2.63;2.42;;;;;;;16.91;nan;-24288.34;4982393;28;20275;-55
2022/07/12 01:28:58;;;;;;;3.20;2.35;;;;;;;17.18;nan;-24295.72;4979168;28;20269;-56
2022/07/12 01:31:24;;;;;;;2.83;2.25;;;;;;;17.20;nan;-24296.28;4980733;28;20280;-55
2022/07/12 01:33:50;;;;;;;2.22;2.03;;;;;;;17.18;nan;-24295.88;4980054;28;20729;-56
2022/07/12 01:36:16;;;;;;;2.55;2.22;;;;;;;17.29;nan;-24298.66;4995855;28;20220;-56
2022/07/12 01:38:42;;;;;;;2.10;1.80;;;;;;;17.02;nan;-24291.25;4979449;28;20676;-55
2022/07/12 01:41:08;;;;;;;2.50;2.15;;;;;;;16.97;nan;-24290.00;4980422;28;20193;-56
2022/07/12 01:43:34;;;;;;;2.65;2.30;;;;;;;17.33;nan;-24299.91;4981418;28;20212;-56
2022/07/12 01:45:59;;;;;;;6.32;2.38;;;;;;;17.15;nan;-24294.91;4978413;28;20332;-56
2022/07/12 01:48:25;;;;;;;3.33;2.30;;;;;;;17.16;nan;-24295.16;4980936;28;20185;-56
2022/07/12 01:50:50;;;;;;;2.70;2.33;;;;;;;16.94;nan;-24289.03;4979428;28;20189;-55
2022/07/12 01:53:16;;;;;;;2.30;2.05;;;;;;;17.01;nan;-24291.13;4981793;28;20216;-55
2022/07/12 01:55:41;;;;;;;3.47;2.40;;;;;;;16.71;nan;-24282.88;4980147;28;20263;-56
2022/07/12 01:58:07;;;;;;;2.60;2.40;;;;;;;16.94;nan;-24289.16;4977594;28;20177;-56
2022/07/12 02:00:33;;;;;;;2.47;2.28;;;;;;;16.80;nan;-24285.25;4980976;28;20212;-55
2022/07/12 02:02:59;;;;;;;3.20;2.40;;;;;;;16.34;nan;-24272.53;4979556;28;20185;-56
2022/07/12 02:05:25;;;;;;;2.80;2.25;;;;;;;16.53;nan;-24277.84;4981254;28;20232;-56
2022/07/12 02:07:50;;;;;;;2.53;2.22;;;;;;;16.27;nan;-24270.72;4978800;28;20684;-55
2022/07/12 02:10:17;;;;;;;3.45;2.22;;;;;;;16.33;nan;-24272.41;4981597;28;20739;-56
2022/07/12 02:12:43;;;;;;;2.67;2.05;;;;;;;16.10;nan;-24265.81;4979124;28;20668;-56
2022/07/12 02:15:10;;;;;;;2.47;2.28;;;;;;;16.09;nan;-24265.69;4979665;28;20173;-56
2022/07/12 02:17:35;;;;;;;2.75;2.40;;;;;;;15.77;nan;-24256.88;4980627;28;20196;-56
2022/07/12 02:20:04;;;;;;;2.50;2.20;;;;;;;16.00;nan;-24263.03;4979372;28;20212;-55
2022/07/12 02:22:30;;;;;;;2.97;2.38;;;;;;;15.90;nan;-24260.50;4979428;28;20184;-55
2022/07/12 02:24:55;;;;;;;8.20;2.63;;;;;;;16.01;nan;-24263.31;4978653;28;20262;-56
2022/07/12 02:27:21;;;;;;;2.63;2.42;;;;;;;15.84;nan;-24258.84;4981483;28;20177;-55
2022/07/12 02:29:47;;;;;;;2.85;2.47;;;;;;;16.22;nan;-24269.19;4977188;28;20197;-56
2022/07/12 02:32:13;;;;;;;3.10;2.50;;;;;;;16.33;nan;-24272.25;4978901;28;20211;-58
2022/07/12 02:34:39;;;;;;;2.58;2.22;;;;;;;16.34;nan;-24272.69;4988909;28;20240;-56
2022/07/12 02:37:04;;;;;;;3.00;2.53;;;;;;;16.26;nan;-24270.31;4978648;28;20232;-56
2022/07/12 02:39:30;;;;;;;2.40;2.10;;;;;;;16.28;nan;-24270.84;4980034;28;20201;-56
2022/07/12 02:41:55;;;;;;;2.75;2.20;;;;;;;16.64;nan;-24280.94;4978321;28;20198;-56
2022/07/12 02:44:20;;;;;;;2.47;2.28;;;;;;;16.33;nan;-24272.25;4980546;28;20184;-56
2022/07/12 02:46:46;;;;;;;2.72;2.20;;;;;;;16.48;nan;-24276.44;4978419;28;20185;-55
2022/07/12 02:49:12;;;;;;;2.40;2.00;;;;;;;16.53;nan;-24277.72;4980188;28;20240;-55
2022/07/12 02:51:37;;;;;;;3.58;2.50;;;;;;;16.69;nan;-24282.31;4978257;28;20758;-55
2022/07/12 02:54:03;;;;;;;2.80;2.50;;;;;;;16.73;nan;-24283.31;4978398;28;20181;-56
2022/07/12 02:56:28;;;;;;;2.67;2.15;;;;;;;16.62;nan;-24280.38;4977083;28;20177;-56
2022/07/12 02:58:54;;;;;;;2.38;2.15;;;;;;;13.34;nan;-24189.44;4987747;28;20625;-56
2022/07/12 03:01:19;;;;;;;2.83;2.45;;;;;;;16.66;nan;-24281.34;4979980;28;20252;-55
2022/07/12 03:03:45;;;;;;;3.33;2.45;;;;;;;16.54;nan;-24278.00;4978320;28;20196;-55
2022/07/12 03:06:12;;;;;;;3.90;2.88;;;;;;;16.74;nan;-24283.72;4976932;28;20184;-56
2022/07/12 03:08:38;;;;;;;3.25;2.60;;;;;;;17.16;nan;-24295.16;4979910;28;20271;-56
2022/07/12 03:11:03;;;;;;;2.67;2.28;;;;;;;17.87;nan;-24314.72;4978507;28;20332;-55
2022/07/12 03:13:29;;;;;;;2.40;2.20;;;;;;;18.23;nan;-24324.75;4979351;28;20234;-55
2022/07/12 03:15:54;;;;;;;3.03;2.53;;;;;;;18.58;nan;-24334.22;4977791;28;20224;-56
2022/07/12 03:18:20;;;;;;;2.78;2.00;;;;;;;18.92;nan;-24343.69;4980406;28;20570;-56
2022/07/12 03:20:45;;;;;;;3.22;2.42;;;;;;;19.28;nan;-24353.72;4977555;28;20695;-56
2022/07/12 03:23:11;;;;;;;2.20;2.00;;;;;;;19.66;nan;-24364.16;4977405;28;20177;-56
2022/07/12 03:25:36;;;;;;;2.55;1.95;;;;;;;20.42;nan;-24385.00;4974202;28;20184;-57
2022/07/12 03:28:02;;;;;;;2.20;1.77;;;;;;;20.70;nan;-24392.75;4974693;28;20185;-55
2022/07/12 03:30:28;;;;;;;2.20;2.00;;;;;;;20.93;nan;-24398.88;4974890;28;20625;-55
2022/07/12 03:32:53;;;;;;;2.35;2.10;;;;;;;20.98;nan;-24400.38;4976579;28;20708;-56
2022/07/12 03:35:19;;;;;;;2.60;1.98;;;;;;;21.68;nan;-24419.38;4973271;28;20574;-57
2022/07/12 03:37:49;;;;;;;2.20;2.00;;;;;;;22.01;nan;-24428.66;4975982;28;20189;-55
2022/07/12 03:40:17;;;;;;;2.75;2.00;;;;;;;22.19;nan;-24433.38;4974657;28;20227;-57
2022/07/12 03:42:43;;;;;;;2.45;2.20;;;;;;;22.70;nan;-24447.50;4975849;28;20695;-56
2022/07/12 03:45:11;;;;;;;4.70;2.40;;;;;;;20.84;nan;-24396.50;4974362;28;20184;-57
2022/07/12 03:47:37;;;;;;;3.70;2.38;;;;;;;23.50;nan;-24469.19;4975103;28;20280;-57
2022/07/12 03:50:13;;;;;;;2.65;2.20;;;;;;;23.45;nan;-24467.94;4972727;28;20224;-57
2022/07/12 03:52:40;;;;;;;2.47;2.10;;;;;;;24.59;nan;-24499.13;4975323;28;20187;-56
2022/07/12 03:55:06;;;;;;;2.42;1.67;;;;;;;24.69;nan;-24501.59;4975280;28;20243;-57
2022/07/12 03:57:31;;;;;;;1.95;1.70;;;;;;;24.91;nan;-24507.66;4976958;28;20779;-56
2022/07/12 03:59:57;;;;;;;2.30;2.00;;;;;;;24.30;nan;-24491.13;4974916;28;20214;-57
2022/07/12 04:02:23;;;;;;;2.67;2.15;;;;;;;24.82;nan;-24505.19;4975533;28;20268;-57
2022/07/12 04:04:49;;;;;;;2.50;2.00;;;;;;;24.48;nan;-24496.09;4976338;28;20185;-57
2022/07/12 04:07:15;;;;;;;3.95;1.95;;;;;;;24.69;nan;-24501.59;4976187;28;20195;-58
2022/07/12 04:09:41;;;;;;;2.95;1.67;;;;;;;25.23;nan;-24516.34;4979354;28;20185;-58
2022/07/12 04:12:06;;;;;;;2.28;1.90;;;;;;;26.25;nan;-24544.13;4978711;28;20874;-58
2022/07/12 04:14:33;;;;;;;2.00;1.80;;;;;;;25.36;nan;-24520.03;4986643;28;20645;-58
2022/07/12 04:16:58;;;;;;;1.98;1.73;;;;;;;25.96;nan;-24536.28;4977938;28;20193;-58
2022/07/12 04:19:27;;;;;;;2.63;1.80;;;;;;;26.82;nan;-24559.75;4979908;28;20200;-57
2022/07/12 04:21:54;;;;;;;2.83;2.17;;;;;;;27.78;nan;-24585.69;4977469;28;20285;-57
2022/07/12 04:24:19;;;;;;;2.83;2.00;;;;;;;28.21;nan;-24597.19;4976214;28;20216;-56
2022/07/12 04:26:45;;;;;;;2.92;2.08;;;;;;;28.44;nan;-24603.47;4980624;28;20203;-58
2022/07/12 04:29:10;;;;;;;2.22;1.75;;;;;;;28.61;nan;-24607.97;4978073;28;20546;-56
2022/07/12 04:31:36;;;;;;;2.67;1.88;;;;;;;27.06;nan;-24566.06;4978268;28;20185;-56
2022/07/12 04:34:02;;;;;;;3.05;2.00;;;;;;;27.09;nan;-24567.03;4976574;28;20637;-59
2022/07/12 04:36:28;;;;;;;2.45;1.85;;;;;;;26.99;nan;-24564.16;4982085;28;20236;-57
2022/07/12 04:38:53;;;;;;;2.58;2.05;;;;;;;26.78;nan;-24558.53;4980118;28;20189;-57
2022/07/12 04:41:18;;;;;;;2.53;2.00;;;;;;;26.51;nan;-24551.13;4984127;28;20207;-57
2022/07/12 04:43:44;;;;;;;2.75;1.83;;;;;;;26.13;nan;-24540.94;4980151;28;20530;-57
2022/07/12 04:46:10;;;;;;;2.17;1.90;;;;;;;26.19;nan;-24542.47;4979950;28;20272;-56
2022/07/12 04:48:36;;;;;;;1.83;1.60;;;;;;;26.43;nan;-24549.06;4980395;28;20188;-56
2022/07/12 04:51:02;;;;;;;1.98;1.77;;;;;;;26.44;nan;-24549.19;4982340;28;20204;-58
2022/07/12 04:53:28;;;;;;;2.55;2.10;;;;;;;26.21;nan;-24543.00;4981585;28;20635;-57
2022/07/12 04:55:57;;;;;;;2.42;2.05;;;;;;;25.75;nan;-24530.50;4979439;28;20181;-57
2022/07/12 04:58:23;;;;;;;2.42;2.20;;;;;;;25.80;nan;-24531.88;4979875;28;20196;-57
2022/07/12 05:00:50;;;;;;;2.33;2.08;;;;;;;25.83;nan;-24532.69;4980044;28;20263;-57
2022/07/12 05:03:15;;;;;;;2.58;2.20;;;;;;;26.35;nan;-24547.00;4982417;28;20305;-57
2022/07/12 05:05:41;;;;;;;2.53;1.95;;;;;;;25.14;nan;-24513.84;4985671;28;20208;-57
2022/07/12 05:08:06;;;;;;;2.00;1.80;;;;;;;22.35;nan;-24437.78;4977393;28;20243;-58
2022/07/12 05:10:32;;;;;;;2.25;1.90;;;;;;;24.19;nan;-24488.09;4977625;28;20722;-58
2022/07/12 05:12:57;;;;;;;2.33;2.00;;;;;;;24.32;nan;-24491.53;4979701;28;20181;-57
2022/07/12 05:15:23;;;;;;;2.63;1.95;;;;;;;24.49;nan;-24496.34;4977209;28;20177;-56
2022/07/12 05:17:48;;;;;;;2.17;1.77;;;;;;;22.26;nan;-24435.44;4979241;28;20657;-58
2022/07/12 05:20:14;;;;;;;2.08;1.88;;;;;;;23.99;nan;-24482.56;4980212;28;20209;-57
2022/07/12 05:22:41;;;;;;;1.80;1.70;;;;;;;24.10;nan;-24485.59;4981753;28;20256;-58
2022/07/12 05:25:08;;;;;;;3.00;2.00;;;;;;;21.18;nan;-24405.66;4985146;28;20284;-57
2022/07/12 05:27:34;;;;;;;2.17;1.90;;;;;;;24.35;nan;-24492.34;4981252;28;20181;-57
2022/07/12 05:30:00;;;;;;;2.28;1.85;;;;;;;24.34;nan;-24492.09;4983662;28;20268;-56
2022/07/12 05:32:25;;;;;;;2.47;1.83;;;;;;;23.99;nan;-24482.56;4983816;28;20239;-57
2022/07/12 05:34:51;;;;;;;3.60;2.08;;;;;;;24.39;nan;-24493.59;4982823;28;20192;-57
2022/07/12 05:37:16;;;;;;;2.42;2.05;;;;;;;23.70;nan;-24474.69;4982428;28;20311;-57
2022/07/12 05:39:42;;;;;;;4.50;1.73;;;;;;;23.37;nan;-24465.72;4985081;28;20274;-57
2022/07/12 05:42:07;;;;;;;2.50;1.90;;;;;;;23.84;nan;-24478.44;4981568;28;20710;-57
2022/07/12 05:44:33;;;;;;;2.10;1.90;;;;;;;23.69;nan;-24474.56;4974557;28;20178;-56
2022/07/12 05:46:58;;;;;;;2.80;2.30;;;;;;;23.27;nan;-24462.97;4979475;28;20193;-57
2022/07/12 05:49:24;;;;;;;2.20;2.00;;;;;;;23.06;nan;-24457.31;4984247;28;20706;-58
2022/07/12 05:54:33;;;;;;;2.50;1.92;;;;;;;23.04;nan;-24456.59;4979517;28;20188;-56
2022/07/12 05:56:59;;;;;;;3.20;1.75;;;;;;;22.67;nan;-24446.50;4978195;28;20184;-57
2022/07/12 05:59:24;;;;;;;3.15;2.08;;;;;;;22.50;nan;-24441.94;4980844;28;20701;-57
2022/07/12 06:01:49;;;;;;;2.70;2.00;;;;;;;22.36;nan;-24438.06;4977349;28;20185;-58
2022/07/12 06:04:15;;;;;;;2.60;1.70;;;;;;;21.86;nan;-24424.38;4981661;28;20670;-56
2022/07/12 06:06:40;;;;;;;3.35;1.90;;;;;;;21.83;nan;-24423.69;4982372;28;20719;-57
2022/07/12 06:09:06;;;;;;;4.53;1.92;;;;;;;22.18;nan;-24433.09;4980173;28;20337;-57
2022/07/12 06:11:33;;;;;;;2.00;1.80;;;;;;;21.82;nan;-24423.41;4975240;28;20208;-56
2022/07/12 06:13:59;;;;;;;4.80;2.05;;;;;;;22.29;nan;-24436.13;4976834;28;20289;-57
2022/07/12 06:16:24;;;;;;;2.60;1.92;;;;;;;22.04;nan;-24429.34;4983632;28;20199;-57
2022/07/12 06:18:49;;;;;;;2.22;1.77;;;;;;;22.09;nan;-24430.59;4981787;28;20270;-57
2022/07/12 06:21:15;;;;;;;3.22;2.03;;;;;;;21.88;nan;-24424.91;4983853;28;21317;-57
2022/07/12 06:23:40;;;;;;;2.30;1.63;;;;;;;21.82;nan;-24423.25;4978807;28;20762;-56
2022/07/12 06:26:06;;;;;;;2.22;2.03;;;;;;;22.14;nan;-24432.13;4980243;28;20216;-56
2022/07/12 06:28:31;;;;;;;2.90;1.63;;;;;;;22.16;nan;-24432.69;4979059;28;20193;-58
2022/07/12 06:30:57;;;;;;;2.05;1.70;;;;;;;22.31;nan;-24436.84;4978308;28;20579;-56
2022/07/12 06:33:22;;;;;;;2.13;1.70;;;;;;;22.10;nan;-24430.88;4977716;28;20562;-58
2022/07/12 06:35:48;;;;;;;8.15;2.08;;;;;;;22.97;nan;-24454.66;4979878;28;20228;-58
2022/07/12 06:38:13;;;;;;;2.40;1.90;;;;;;;22.61;nan;-24444.84;5009197;28;20189;-58
2022/07/12 06:40:38;;;;;;;2.65;1.70;;;;;;;22.61;nan;-24445.00;4974306;28;20217;-57
2022/07/12 06:43:11;;;;;;;2.15;1.73;;;;;;;22.54;nan;-24443.06;4978454;28;20177;-58
2022/07/12 06:45:37;;;;;;;1.95;1.77;;;;;;;23.03;nan;-24456.34;4969800;28;20189;-57
2022/07/12 06:48:04;;;;;;;2.78;1.83;;;;;;;22.78;nan;-24449.69;4979419;28;20188;-58
2022/07/12 06:50:30;;;;;;;2.92;1.80;;;;;;;22.61;nan;-24445.00;4981379;28;20187;-58
2022/07/12 06:52:56;;;;;;;2.83;1.73;;;;;;;22.53;nan;-24442.78;4980758;28;20185;-55
2022/07/12 06:55:22;;;;;;;2.05;1.60;;;;;;;23.14;nan;-24459.38;4979759;28;20179;-57
2022/07/12 06:57:47;;;;;;;2.25;1.88;;;;;;;22.87;nan;-24452.03;4981562;28;20181;-58
2022/07/12 07:00:13;;;;;;;3.15;1.90;;;;;;;22.82;nan;-24450.66;4977270;28;20200;-59
2022/07/12 07:02:39;;;;;;;3.05;2.17;;;;;;;23.03;nan;-24456.34;4980443;28;20180;-57
2022/07/12 07:05:06;;;;;;;3.60;1.88;;;;;;;23.23;nan;-24461.84;4974367;28;20664;-57
2022/07/12 07:07:31;;;;;;;2.42;1.58;;;;;;;23.09;nan;-24458.13;4974165;28;20256;-57
2022/07/12 07:09:57;;;;;;;2.72;1.80;;;;;;;23.25;nan;-24462.41;4973818;28;20621;-58
2022/07/12 07:12:23;;;;;;;2.15;1.60;;;;;;;23.40;nan;-24466.56;4974441;28;20189;-57
2022/07/12 07:14:48;;;;;;;1.60;1.50;;;;;;;23.37;nan;-24465.59;4975985;28;20208;-57
2022/07/12 07:17:16;;;;;;;3.92;1.90;;;;;;;23.42;nan;-24467.09;4973533;28;20184;-58
2022/07/12 07:19:42;;;;;;;3.25;2.00;;;;;;;23.62;nan;-24472.63;4973993;28;20292;-57
2022/07/12 07:22:07;;;;;;;3.47;2.08;;;;;;;23.81;nan;-24477.75;4973655;28;20268;-56
2022/07/12 07:24:33;;;;;;;1.98;1.70;;;;;;;23.00;nan;-24455.50;4973762;28;20174;-58
2022/07/12 07:26:58;;;;;;;3.17;1.63;;;;;;;23.48;nan;-24468.78;4975230;28;20675;-56
2022/07/12 07:32:08;;;;;;;3.33;1.77;;;;;;;24.10;nan;-24485.75;4975967;28;20630;-57
2022/07/12 07:34:33;;;;;;;2.10;1.50;;;;;;;23.96;nan;-24481.72;4975492;28;20331;-57
2022/07/12 07:36:59;;;;;;;2.33;1.45;;;;;;;24.30;nan;-24491.13;4980967;28;20216;-58
2022/07/12 07:39:24;;;;;;;2.13;1.60;;;;;;;24.28;nan;-24490.56;5011307;28;20212;-57
2022/07/12 07:41:49;;;;;;;2.08;1.50;;;;;;;24.35;nan;-24492.50;4980275;28;20174;-58
2022/07/12 07:44:15;;;;;;;2.35;1.60;;;;;;;24.02;nan;-24483.53;4980178;28;20649;-58
2022/07/12 07:46:40;;;;;;;3.10;1.55;;;;;;;24.09;nan;-24485.31;4980135;28;20185;-59
2022/07/12 07:49:06;;;;;;;1.70;1.30;;;;;;;24.10;nan;-24485.59;4979750;28;20206;-58
2022/07/12 07:51:31;;;;;;;3.83;1.60;;;;;;;24.43;nan;-24494.56;4974735;28;20185;-58
2022/07/12 07:53:57;;;;;;;1.58;1.40;;;;;;;24.48;nan;-24496.09;4979042;28;20225;-59
2022/07/12 07:56:22;;;;;;;2.55;1.80;;;;;;;24.52;nan;-24497.03;4980619;28;20173;-58
2022/07/12 07:58:48;;;;;;;1.75;1.20;;;;;;;24.92;nan;-24507.94;4978817;28;20540;-57
2022/07/12 08:01:13;;;;;;;1.85;1.65;;;;;;;24.72;nan;-24502.56;4980604;28;20291;-59
2022/07/12 08:03:39;;;;;;;2.05;1.30;;;;;;;24.84;nan;-24505.72;4978447;28;20173;-62
2022/07/12 08:06:05;;;;;;;1.50;1.40;;;;;;;24.61;nan;-24499.53;4978417;28;20188;-58
2022/07/12 08:08:30;;;;;;;1.52;1.40;;;;;;;24.46;nan;-24495.41;4979134;28;20284;-58
2022/07/12 08:10:56;;;;;;;1.27;1.17;;;;;;;24.68;nan;-24501.31;4977390;28;20649;-57
2022/07/12 08:13:21;;;;;;;1.50;1.40;;;;;;;24.49;nan;-24496.22;4976803;28;20208;-58
2022/07/12 08:15:47;;;;;;;1.48;1.23;;;;;;;24.45;nan;-24495.25;4976416;28;20268;-58
2022/07/12 08:18:13;;;;;;;1.42;1.33;;;;;;;24.69;nan;-24501.72;4977180;28;20642;-58
2022/07/12 08:20:38;;;;;;;1.30;1.20;;;;;;;24.81;nan;-24504.91;4978817;28;20196;-57
2022/07/12 08:23:04;;;;;;;1.35;1.20;;;;;;;24.44;nan;-24494.84;4977374;28;20193;-58
2022/07/12 08:25:29;;;;;;;4.30;1.40;;;;;;;24.89;nan;-24507.25;4979204;28;20189;-56
2022/07/12 08:27:55;;;;;;;1.33;1.13;;;;;;;24.99;nan;-24509.84;4979293;28;20213;-58
2022/07/12 08:30:20;;;;;;;1.58;1.20;;;;;;;24.70;nan;-24502.00;4976765;28;20274;-59
2022/07/12 08:32:47;;;;;;;1.40;1.30;;;;;;;24.94;nan;-24508.47;4978756;28;20189;-58
2022/07/12 08:35:14;;;;;;;1.63;1.30;;;;;;;24.79;nan;-24504.34;4980972;28;20641;-58
2022/07/12 08:37:40;;;;;;;1.38;1.27;;;;;;;25.00;nan;-24510.28;4977682;28;20229;-58
2022/07/12 08:40:06;;;;;;;3.20;1.40;;;;;;;25.02;nan;-24510.81;4972377;28;20213;-57
2022/07/12 08:42:32;;;;;;;2.10;1.50;;;;;;;25.01;nan;-24510.56;4975542;28;20192;-56
2022/07/12 08:44:58;;;;;;;2.90;1.33;;;;;;;25.24;nan;-24516.59;4972561;28;20177;-58
2022/07/12 08:47:24;;;;;;;1.55;1.20;;;;;;;25.24;nan;-24516.59;4972507;28;20188;-57
2022/07/12 08:50:19;;;;;;;1.50;1.30;;;;;;;25.25;nan;-24517.00;4974658;28;20345;-56
2022/07/12 08:52:50;;;;;;;1.85;1.48;;;;;;;25.33;nan;-24519.22;4981183;28;20328;-57
2022/07/12 08:55:30;;;;;;;1.60;1.25;;;;;;;25.37;nan;-24520.31;4976124;28;20189;-58
2022/07/12 08:58:02;;;;;;;1.20;1.10;;;;;;;25.53;nan;-24524.59;4982570;28;20192;-58
2022/07/12 09:00:28;;;;;;;1.80;1.40;;;;;;;25.40;nan;-24521.16;4981208;28;20208;-57
2022/07/12 09:02:56;;;;;;;1.42;1.20;;;;;;;25.34;nan;-24519.34;4981014;28;20199;-57
2022/07/12 09:05:23;;;;;;;2.08;1.30;;;;;;;25.24;nan;-24516.59;4979611;28;20268;-58
2022/07/12 09:07:49;;;;;;;3.47;1.40;;;;;;;25.44;nan;-24522.09;4978805;28;20187;-57
2022/07/12 09:10:16;;;;;;;1.40;1.30;;;;;;;25.66;nan;-24528.03;4975676;28;20216;-57
2022/07/12 09:12:43;;;;;;;1.45;1.35;;;;;;;25.75;nan;-24530.50;4980383;28;20603;-57
2022/07/12 09:15:21;;;;;;;1.98;1.70;;;;;;;25.33;nan;-24519.22;4977837;28;20723;-58
2022/07/12 09:18:00;;;;;;;4.15;1.80;;;;;;;25.73;nan;-24530.09;4979341;28;20192;-57
2022/07/12 09:20:34;;;;;;;2.75;1.95;;;;;;;25.67;nan;-24528.31;4981029;28;20607;-58
2022/07/12 09:23:05;;;;;;;2.53;1.67;;;;;;;25.83;nan;-24532.69;4976546;28;20264;-58
2022/07/12 09:25:34;;;;;;;1.67;1.50;;;;;;;25.65;nan;-24527.88;4978674;28;20181;-58
2022/07/12 09:28:03;;;;;;;3.35;1.70;;;;;;;25.39;nan;-24520.88;4978285;28;20371;-58
2022/07/12 09:30:29;;;;;;;4.13;1.63;;;;;;;25.37;nan;-24520.19;4978163;28;20180;-56
2022/07/12 09:36:06;;;;;;;1.75;1.40;;;;;;;25.77;nan;-24531.06;4973711;28;20239;-57
2022/07/12 09:38:54;;;;;;;1.92;1.60;;;;;;;26.05;nan;-24538.75;4974849;28;20232;-58
2022/07/12 09:41:21;;;;;;;2.13;1.73;;;;;;;25.99;nan;-24536.97;4962734;28;20197;-58
2022/07/12 09:43:47;;;;;;;1.98;1.73;;;;;;;25.92;nan;-24535.19;4979940;28;20192;-60
2022/07/12 09:46:16;;;;;;;2.55;1.48;;;;;;;26.51;nan;-24551.25;4977462;28;20182;-57
2022/07/12 09:48:44;;;;;;;2.20;1.63;;;;;;;26.50;nan;-24550.97;4978813;28;20186;-57
2022/07/12 09:51:13;;;;;;;2.58;1.40;;;;;;;26.54;nan;-24551.94;4976540;28;20174;-58
2022/07/12 09:53:48;;;;;;;2.38;1.38;;;;;;;26.43;nan;-24549.06;4978820;28;20192;-58
2022/07/12 09:56:16;;;;;;;5.00;1.80;;;;;;;26.40;nan;-24548.22;4978502;28;20188;-57
2022/07/12 09:58:54;;;;;;;3.00;1.50;;;;;;;26.64;nan;-24554.69;4974452;28;20182;-59
2022/07/12 10:01:21;;;;;;;2.47;1.58;;;;;;;26.54;nan;-24551.94;4978850;28;20303;-57
2022/07/12 10:03:48;;;;;;;3.03;1.25;;;;;;;26.50;nan;-24550.97;4974088;28;20177;-59
2022/07/12 10:06:21;;;;;;;2.55;1.80;;;;;;;26.90;nan;-24561.69;4980141;28;20192;-58
2022/07/12 10:08:48;;;;;;;2.03;1.50;;;;;;;26.53;nan;-24551.81;4976790;28;20177;-58
2022/07/12 10:11:13;;;;;;;2.00;1.40;;;;;;;26.40;nan;-24548.22;4979464;28;20638;-57
2022/07/12 10:13:39;;;;;;;1.83;1.50;;;;;;;26.45;nan;-24549.47;4978120;28;20247;-58
2022/07/12 10:16:07;;;;;;;1.40;1.27;;;;;;;24.28;nan;-24490.44;4979625;28;20176;-57
2022/07/12 10:18:33;;;;;;;1.83;1.38;;;;;;;26.38;nan;-24547.69;4976471;28;20193;-57
2022/07/12 10:20:58;;;;;;;1.40;1.30;;;;;;;26.51;nan;-24551.13;4979331;28;20730;-57
2022/07/12 10:23:34;;;;;;;1.30;1.20;;;;;;;26.55;nan;-24552.34;4978406;28;20801;-57
2022/07/12 10:26:37;;;;;;;3.78;1.60;;;;;;;26.66;nan;-24555.38;4979328;28;20173;-58
2022/07/12 10:29:06;;;;;;;2.00;1.30;;;;;;;26.63;nan;-24554.53;4979164;28;20665;-57
2022/07/12 10:31:37;;;;;;;1.40;1.20;;;;;;;26.91;nan;-24561.97;4981314;28;20177;-58
2022/07/12 10:34:14;;;;;;;2.72;1.92;;;;;;;26.59;nan;-24553.44;4980289;28;20272;-58
2022/07/12 10:36:54;;;;;;;4.22;1.45;;;;;;;26.85;nan;-24560.44;4977489;28;20240;-57
2022/07/12 10:39:21;;;;;;;1.60;1.50;;;;;;;26.97;nan;-24563.75;4977590;28;20196;-58
2022/07/12 10:42:05;;;;;;;1.85;1.40;;;;;;;27.08;nan;-24566.75;4978415;28;20236;-57
2022/07/12 10:44:34;;;;;;;4.05;1.63;;;;;;;27.09;nan;-24567.03;4976492;28;20224;-58
2022/07/12 10:47:00;;;;;;;1.70;1.40;;;;;;;26.98;nan;-24563.88;4977838;28;20212;-58
2022/07/12 10:49:28;;;;;;;1.85;1.30;;;;;;;26.63;nan;-24554.41;4973599;28;20177;-57
2022/07/12 10:52:11;;;;;;;1.98;1.40;;;;;;;26.85;nan;-24560.31;4975537;28;20264;-59
2022/07/12 10:55:07;;;;;;;1.95;1.55;;;;;;;26.91;nan;-24562.09;4973429;28;20188;-57
2022/07/12 10:57:46;;;;;;;1.65;1.40;;;;;;;27.10;nan;-24567.16;4977974;28;20189;-57
2022/07/12 11:00:14;;;;;;;1.45;1.35;;;;;;;27.08;nan;-24566.75;4977850;28;20284;-57
2022/07/12 11:02:40;;;;;;;1.25;1.15;;;;;;;24.90;nan;-24507.38;4973348;28;20268;-58
2022/07/12 11:05:06;;;;;;;1.23;1.13;;;;;;;26.84;nan;-24560.16;4975167;28;20241;-57
2022/07/12 11:07:32;;;;;;;1.75;1.50;;;;;;;26.87;nan;-24560.88;4976037;28;20678;-57
2022/07/12 11:09:57;;;;;;;1.30;1.20;;;;;;;26.82;nan;-24559.75;4975114;28;20264;-58
2022/07/12 11:12:32;;;;;;;2.65;1.70;;;;;;;27.09;nan;-24566.91;4975591;28;20181;-58
2022/07/12 11:14:59;;;;;;;1.50;1.20;;;;;;;26.99;nan;-24564.28;4992594;28;20180;-56
2022/07/12 11:17:27;;;;;;;2.28;1.48;;;;;;;27.35;nan;-24573.88;4972692;28;20275;-57
2022/07/12 11:20:13;;;;;;;1.92;1.60;;;;;;;27.43;nan;-24576.22;4975152;28;20247;-58
2022/07/12 11:22:42;;;;;;;1.40;1.30;;;;;;;26.94;nan;-24562.78;4977774;28;20711;-58
2022/07/12 11:25:09;;;;;;;1.42;1.30;;;;;;;26.91;nan;-24562.09;4979144;28;20177;-58
2022/07/12 11:27:35;;;;;;;2.88;2.00;;;;;;;27.30;nan;-24572.50;4979050;28;20529;-57
2022/07/12 11:30:04;;;;;;;3.08;1.63;;;;;;;27.45;nan;-24576.78;4974077;28;20185;-57
2022/07/12 11:32:41;;;;;;;1.73;1.60;;;;;;;27.46;nan;-24576.91;4977170;28;20185;-57
2022/07/12 11:35:22;;;;;;;1.33;1.23;;;;;;;27.16;nan;-24568.94;4982794;28;20632;-58
2022/07/12 11:37:57;;;;;;;1.50;1.40;;;;;;;26.93;nan;-24562.66;4975337;28;20208;-57
2022/07/12 11:40:30;;;;;;;1.70;1.40;;;;;;;27.10;nan;-24567.31;4979844;28;20273;-57
2022/07/12 11:42:58;;;;;;;3.08;1.40;;;;;;;27.32;nan;-24573.22;4978039;28;20183;-56
2022/07/12 11:45:27;;;;;;;1.33;1.20;;;;;;;27.42;nan;-24575.81;4979721;28;20208;-58
2022/07/12 11:47:53;;;;;;;1.42;1.30;;;;;;;27.28;nan;-24572.09;4977725;28;20188;-58
2022/07/12 11:50:19;;;;;;;1.75;1.40;;;;;;;26.89;nan;-24561.56;4979806;28;20188;-57
2022/07/12 11:52:45;;;;;;;2.50;1.65;;;;;;;27.31;nan;-24572.78;4977351;28;20397;-57